createdAt,value
2022-12-19T00:03:46.635Z,-9.49
2022-12-19T00:08:05.229Z,-9.55
2022-12-19T00:12:34.114Z,-9.51
2022-12-19T00:16:51.175Z,-9.56
2022-12-19T00:21:12.172Z,-9.52
2022-12-19T00:25:28.953Z,-9.69
2022-12-19T00:29:46.521Z,-9.70
2022-12-19T00:34:04.282Z,-9.67
2022-12-19T00:38:21.335Z,-9.62
2022-12-19T00:42:38.199Z,-9.59
2022-12-19T00:46:55.565Z,-9.55
2022-12-19T00:51:23.265Z,-9.59
2022-12-19T00:55:41.592Z,-9.51
2022-12-19T00:59:58.667Z,-9.55
2022-12-19T01:04:34.491Z,-9.55
2022-12-19T01:08:53.172Z,-9.54
2022-12-19T01:13:10.001Z,-9.58
2022-12-19T01:17:27.051Z,-9.58
2022-12-19T01:21:43.963Z,-9.65
2022-12-19T01:26:01.946Z,-9.70
2022-12-19T01:30:19.048Z,-9.75
2022-12-19T01:34:36.736Z,-9.89
2022-12-19T01:38:57.099Z,-9.87
2022-12-19T01:43:15.393Z,-9.90
2022-12-19T01:47:35.974Z,-9.86
2022-12-19T01:51:56.565Z,-9.91
2022-12-19T01:56:13.750Z,-10.00
2022-12-19T02:00:33.120Z,-10.00
2022-12-19T02:04:50.239Z,-10.18
2022-12-19T02:09:07.100Z,-10.24
2022-12-19T02:13:24.690Z,-10.24
2022-12-19T02:18:37.430Z,-10.14
2022-12-19T02:23:47.338Z,-10.05
2022-12-19T02:28:33.317Z,-10.05
2022-12-19T02:33:03.723Z,-10.00
2022-12-19T02:37:29.154Z,-9.96
2022-12-19T02:41:59.242Z,-9.98
2022-12-19T02:46:16.657Z,-10.04
2022-12-19T02:50:47.919Z,-9.85
2022-12-19T02:55:13.728Z,-9.83
2022-12-19T03:00:00.196Z,-9.70
2022-12-19T03:04:35.093Z,-9.65
2022-12-19T03:09:16.629Z,-9.73
2022-12-19T03:14:01.985Z,-9.85
2022-12-19T03:18:20.325Z,-9.96
2022-12-19T03:22:37.402Z,-10.05
2022-12-19T03:27:09.967Z,-10.10
2022-12-19T03:31:29.801Z,-10.20
2022-12-19T03:35:49.228Z,-10.35
2022-12-19T03:40:18.001Z,-10.49
2022-12-19T03:44:39.468Z,-10.56
2022-12-19T03:48:56.613Z,-10.80
2022-12-19T03:53:48.975Z,-10.97
2022-12-19T03:58:20.903Z,-11.19
2022-12-19T04:02:41.456Z,-11.42
2022-12-19T04:06:59.686Z,-11.42
2022-12-19T04:11:20.357Z,-11.43
2022-12-19T04:15:46.217Z,-11.25
2022-12-19T04:20:21.046Z,-11.11
2022-12-19T04:24:43.755Z,-11.01
2022-12-19T04:29:05.999Z,-11.08
2022-12-19T04:33:23.301Z,-11.22
2022-12-19T04:37:40.698Z,-11.29
2022-12-19T04:41:57.790Z,-11.70
2022-12-19T04:46:14.751Z,-11.83
2022-12-19T04:50:34.048Z,-11.96
2022-12-19T04:54:50.883Z,-12.14
2022-12-19T04:59:07.950Z,-12.31
2022-12-19T05:03:26.303Z,-12.36
2022-12-19T05:07:43.241Z,-12.53
2022-12-19T05:12:00.374Z,-12.36
2022-12-19T05:16:17.893Z,-12.34
2022-12-19T05:20:37.417Z,-12.41
2022-12-19T05:24:54.306Z,-12.46
2022-12-19T05:29:11.365Z,-12.41
2022-12-19T05:33:28.236Z,-12.42
2022-12-19T05:37:45.719Z,-12.20
2022-12-19T05:42:02.579Z,-12.08
2022-12-19T05:46:20.907Z,-12.13
2022-12-19T05:50:37.840Z,-12.20
2022-12-19T05:54:55.022Z,-12.24
2022-12-19T05:59:11.958Z,-12.20
2022-12-19T06:03:29.024Z,-12.13
2022-12-19T06:07:46.632Z,-12.05
2022-12-19T06:12:03.944Z,-11.98
2022-12-19T06:16:22.699Z,-11.98
2022-12-19T06:20:39.753Z,-11.87
2022-12-19T06:24:56.910Z,-11.83
2022-12-19T06:29:14.067Z,-11.73
2022-12-19T06:33:32.747Z,-11.66
2022-12-19T06:37:49.976Z,-11.60
2022-12-19T06:42:24.356Z,-11.65
2022-12-19T06:46:42.321Z,-11.63
2022-12-19T06:50:59.925Z,-11.66
2022-12-19T06:55:16.913Z,-11.69
2022-12-19T06:59:34.313Z,-11.98
2022-12-19T07:03:51.269Z,-12.11
2022-12-19T07:08:11.279Z,-12.24
2022-12-19T07:12:28.121Z,-12.14
2022-12-19T07:16:46.919Z,-11.91
2022-12-19T07:21:05.976Z,-11.46
2022-12-19T07:25:23.157Z,-11.42
2022-12-19T07:29:40.028Z,-11.29
2022-12-19T07:33:58.278Z,-10.76
2022-12-19T07:38:15.338Z,-10.29
2022-12-19T07:42:32.899Z,-9.94
2022-12-19T07:46:49.891Z,-9.80
2022-12-19T07:51:06.927Z,-9.66
2022-12-19T07:55:23.930Z,-9.49
2022-12-19T07:59:41.006Z,-9.18
2022-12-19T08:03:58.347Z,-8.87
2022-12-19T08:08:17.330Z,-8.69
2022-12-19T08:12:34.474Z,-8.40
2022-12-19T08:17:19.207Z,-8.53
2022-12-19T08:21:28.635Z,-8.82
2022-12-19T08:25:45.482Z,-8.86
2022-12-19T08:30:03.408Z,-8.80
2022-12-19T08:34:20.850Z,-8.66
2022-12-19T08:38:39.856Z,-8.49
2022-12-19T08:42:56.869Z,-8.30
2022-12-19T08:47:13.819Z,-8.13
2022-12-19T08:51:30.886Z,-8.03
2022-12-19T08:55:50.746Z,-7.90
2022-12-19T09:00:08.783Z,-7.76
2022-12-19T09:05:59.913Z,-7.63
2022-12-19T09:09:05.422Z,-7.34
2022-12-19T09:13:23.749Z,-7.34
2022-12-19T09:17:40.648Z,-7.09
2022-12-19T09:21:57.789Z,-6.85
2022-12-19T09:26:14.909Z,-6.51
2022-12-19T09:30:31.809Z,-6.27
2022-12-19T09:34:50.145Z,-6.07
2022-12-19T09:39:07.161Z,-5.81
2022-12-19T09:43:42.151Z,-5.38
2022-12-19T09:48:00.119Z,-5.24
2022-12-19T09:52:31.049Z,-5.03
2022-12-19T09:56:54.321Z,-4.75
2022-12-19T10:01:26.898Z,-4.36
2022-12-19T10:07:12.834Z,-4.02
2022-12-19T10:12:43.157Z,-3.26
2022-12-19T10:16:23.225Z,-2.64
2022-12-19T10:21:09.510Z,-2.32
2022-12-19T10:25:37.634Z,-1.85
2022-12-19T10:30:17.199Z,-1.39
2022-12-19T10:34:40.885Z,-1.51
2022-12-19T10:39:08.627Z,-1.65
2022-12-19T10:43:51.524Z,-1.60
2022-12-19T10:48:17.629Z,-1.93
2022-12-19T10:52:57.146Z,-1.77
2022-12-19T10:57:27.478Z,-1.64
2022-12-19T11:01:45.540Z,-0.75
2022-12-19T11:06:07.045Z,0.84
2022-12-19T11:14:49.905Z,1.84
2022-12-19T11:21:03.261Z,3.06
2022-12-19T11:29:30.621Z,2.83
2022-12-19T11:30:26.148Z,2.23
2022-12-19T11:34:36.564Z,3.80
2022-12-19T11:38:54.465Z,3.88
2022-12-19T11:43:49.277Z,3.66
2022-12-19T11:48:30.090Z,4.68
2022-12-19T11:53:18.558Z,4.75
2022-12-19T11:57:38.853Z,6.12
2022-12-19T12:02:41.192Z,6.01
2022-12-19T12:07:00.062Z,6.43
2022-12-19T12:20:14.984Z,7.06
2022-12-19T12:26:45.115Z,7.30
2022-12-19T12:31:22.780Z,6.77
2022-12-19T12:31:45.111Z,7.55
2022-12-19T12:42:04.087Z,6.29
2022-12-19T12:46:27.757Z,5.75
2022-12-19T12:50:54.661Z,6.63
2022-12-19T12:55:23.860Z,8.44
2022-12-19T12:59:46.767Z,4.52
2022-12-19T13:04:26.545Z,1.54
2022-12-19T13:08:49.774Z,0.74
2022-12-19T13:13:18.675Z,0.19
2022-12-19T13:17:39.532Z,-0.06
2022-12-19T13:22:07.463Z,-0.03
2022-12-19T13:26:46.751Z,-0.50
2022-12-19T13:31:18.763Z,-0.34
2022-12-19T13:36:58.795Z,-0.41
2022-12-19T13:40:32.794Z,-0.40
2022-12-19T13:44:51.535Z,-0.78
2022-12-19T13:49:22.728Z,-0.86
2022-12-19T13:53:43.479Z,-1.02
2022-12-19T13:58:04.455Z,-1.63
2022-12-19T14:02:45.344Z,-2.03
2022-12-19T14:07:19.834Z,-2.30
2022-12-19T14:13:40.674Z,-2.56
2022-12-19T14:16:43.563Z,-3.10
2022-12-19T14:22:07.140Z,-3.45
2022-12-19T14:28:28.265Z,-3.88
2022-12-19T14:30:35.131Z,-4.21
2022-12-19T14:36:10.694Z,-4.69
2022-12-19T14:39:34.371Z,-5.13
2022-12-19T14:52:25.239Z,-5.74
2022-12-19T14:54:06.399Z,-5.90
2022-12-19T14:54:55.333Z,-6.15
2022-12-19T14:58:54.063Z,-6.17
2022-12-19T15:02:48.155Z,-6.42
2022-12-19T15:07:12.554Z,-6.62
2022-12-19T15:12:05.923Z,-6.89
2022-12-19T15:16:31.582Z,-6.96
2022-12-19T15:20:50.337Z,-7.01
2022-12-19T15:25:17.583Z,-7.14
2022-12-19T15:29:45.379Z,-7.31
2022-12-19T15:34:41.668Z,-7.54
2022-12-19T15:39:04.251Z,-7.51
2022-12-19T15:44:01.913Z,-7.58
2022-12-19T15:48:00.672Z,-7.65
2022-12-19T15:52:19.616Z,-7.65
2022-12-19T15:56:43.543Z,-7.67
2022-12-19T16:01:04.134Z,-7.65
2022-12-19T16:05:23.316Z,-7.69
2022-12-19T16:09:40.523Z,-7.75
2022-12-19T16:13:58.652Z,-7.90
2022-12-19T16:18:16.409Z,-8.02
2022-12-19T16:22:33.494Z,-8.03
2022-12-19T16:26:59.041Z,-7.92
2022-12-19T16:31:16.822Z,-7.99
2022-12-19T16:36:02.980Z,-8.07
2022-12-19T16:40:19.947Z,-8.11
2022-12-19T16:44:36.847Z,-8.18
2022-12-19T16:48:53.976Z,-8.48
2022-12-19T16:53:10.830Z,-8.59
2022-12-19T16:57:28.784Z,-8.63
2022-12-19T17:01:46.447Z,-8.86
2022-12-19T17:06:04.593Z,-8.99
2022-12-19T17:10:27.762Z,-8.96
2022-12-19T17:14:45.166Z,-8.94
2022-12-19T17:19:02.733Z,-9.03
2022-12-19T17:23:25.066Z,-9.03
2022-12-19T17:27:42.060Z,-9.04
2022-12-19T17:31:59.361Z,-9.11
2022-12-19T17:36:21.343Z,-8.96
2022-12-19T17:40:42.816Z,-8.77
2022-12-19T17:44:59.877Z,-8.72
2022-12-19T17:49:29.864Z,-8.66
2022-12-19T17:53:47.524Z,-8.51
2022-12-19T17:58:04.436Z,-8.34
2022-12-19T18:02:26.437Z,-8.09
2022-12-19T18:06:43.825Z,-7.76
2022-12-19T18:11:04.308Z,-7.38
2022-12-19T18:15:23.301Z,-7.10
2022-12-19T18:19:40.575Z,-6.89
2022-12-19T18:23:57.759Z,-6.68
2022-12-19T18:28:16.231Z,-6.32
2022-12-19T18:32:33.003Z,-6.32
2022-12-19T18:36:50.323Z,-6.03
2022-12-19T18:41:20.188Z,-5.66
2022-12-19T18:45:41.691Z,-5.28
2022-12-19T18:49:58.546Z,-5.07
2022-12-19T18:54:19.769Z,-5.00
2022-12-19T18:58:37.368Z,-4.89
2022-12-19T19:03:02.673Z,-4.79
2022-12-19T19:07:19.750Z,-4.73
2022-12-19T19:11:36.896Z,-4.66
2022-12-19T19:15:58.283Z,-4.31
2022-12-19T19:20:15.774Z,-4.10
2022-12-19T19:24:32.853Z,-3.88
2022-12-19T19:28:52.456Z,-3.64
2022-12-19T19:33:21.418Z,-3.47
2022-12-19T19:37:39.386Z,-3.43
2022-12-19T19:41:56.451Z,-3.37
2022-12-19T19:46:13.641Z,-3.33
2022-12-19T19:50:31.347Z,-3.33
2022-12-19T19:54:48.418Z,-3.26
2022-12-19T19:59:05.777Z,-3.16
2022-12-19T20:03:24.141Z,-3.09
2022-12-19T20:07:41.342Z,-3.07
2022-12-19T20:11:58.570Z,-3.05
2022-12-19T20:16:19.074Z,-3.03
2022-12-19T20:20:35.973Z,-2.98
2022-12-19T20:24:54.239Z,-3.02
2022-12-19T20:29:11.606Z,-2.99
2022-12-19T20:33:28.706Z,-2.99
2022-12-19T20:37:45.632Z,-2.98
2022-12-19T20:42:02.802Z,-2.85
2022-12-19T20:46:21.355Z,-2.72
2022-12-19T20:50:43.217Z,-2.58
2022-12-19T20:55:00.459Z,-2.46
2022-12-19T20:59:19.180Z,-2.68
2022-12-19T21:03:36.936Z,-2.62
2022-12-19T21:07:54.153Z,-2.64
2022-12-19T21:12:12.287Z,-2.61
2022-12-19T21:16:29.541Z,-2.65
2022-12-19T21:20:46.644Z,-2.62
2022-12-19T21:25:05.196Z,-2.60
2022-12-19T21:29:22.056Z,-2.58
2022-12-19T21:33:39.365Z,-2.57
2022-12-19T21:37:56.394Z,-2.51
2022-12-19T21:42:13.478Z,-2.46
2022-12-19T21:46:35.716Z,-2.47
2022-12-19T21:50:56.488Z,-2.40
2022-12-19T21:55:13.355Z,-2.40
2022-12-19T21:59:30.616Z,-2.37
2022-12-19T22:03:48.157Z,-2.40
2022-12-19T22:08:05.492Z,-2.23
2022-12-19T22:12:22.519Z,-2.07
2022-12-19T22:16:39.744Z,-2.16
2022-12-19T22:20:59.112Z,-2.32
2022-12-19T22:25:16.184Z,-2.32
2022-12-19T22:29:36.574Z,-2.27
2022-12-19T22:33:58.052Z,-2.23
2022-12-19T22:38:14.919Z,-2.21
2022-12-19T22:42:32.042Z,-2.30
2022-12-19T22:46:50.250Z,-2.17
2022-12-19T22:51:09.031Z,-2.20
2022-12-19T22:55:25.885Z,-2.13
2022-12-19T22:59:44.447Z,-2.12
2022-12-19T23:04:02.924Z,-2.13
2022-12-19T23:08:20.183Z,-2.09
2022-12-19T23:12:37.072Z,-2.13
2022-12-19T23:16:54.309Z,-2.06
2022-12-19T23:21:18.528Z,-2.06
2022-12-19T23:25:42.534Z,-1.88
2022-12-19T23:29:59.662Z,-1.91
2022-12-19T23:34:17.524Z,-1.91
2022-12-19T23:38:34.757Z,-1.88
2022-12-19T23:42:51.600Z,-1.79
2022-12-19T23:47:08.688Z,-1.82
2022-12-19T23:51:27.393Z,-1.86
2022-12-19T23:55:46.354Z,-1.86
